Página principal
METAR-TAF:

METAR-TAF

Aeroportos :

Aeroporto Federico García Lorca Granada-Jaén

Granada, Espanha

latitude: 37-11N, longitude: 003-47W, altura: 567 m

Observação actual do tempo

O boletim foi feito há 19 minutos, às 05:30 UTC
Vento calmo
Temperatura 9°C
Humidade 93%
Pressão 1014 hPa
Visibilidade 10 km ou mais
sem nuvens abaixo de 1500 metros e sem cumulonimbus

METAR: LEGR 260530Z 00000KT CAVOK 09/08 Q1014

Hora: 07:49 (05:49 UTC)

Previsão

O boletim foi feito há 3 horas e 49 minutos, às 02:00 UTC
Previsão válida de 26 às 03 UTC a 27 às 03 UTC
Vento 3 kt com direcção variável
Visibilidade 10 km ou mais
Nuvens dispersasa uma altura de 6000 ft
Probabilidade 30% :
Temporariamente
de 26 às 03 UTC a 26 às 07 UTC
Visibilidade: 2000 m
Nuvens fragmentadasa uma altura de 1000 ft
neblina
Tornando-se
de 26 às 12 UTC a 26 às 14 UTC
Vento 10 kt de oeste

TAF: LEGR 260200Z 2603/2703 VRB03KT 9999 SCT060 TX26/2615Z TN10/2605Z PROB30 TEMPO 2603/2607 2000 BR BKN010 BECMG 2612/2614 27010KT

Observações e previsões do tempo de mais de 4000 aeroportos (mensagens METAR e TAF).

As estações disponíveis são os pontos amarelos e vermelhos sobre o mapa.

Mova o rato sobre o mapa para ver o nome da estação.

Depois clique no ponto para visualizar as observações e previsões meteorológicas.

Para alterar o mapa : clique nos botões verdes com uma cruz preta para aumentar o zoom; no botão verde com uma pitada de zoom; ou nas setas verdes para mapas adjacentes.


METAR-TAF: